Terminal Aerodrome Forecast
Issued by NWS

Home | Current Version | Previous Version | Text Only | Print | Product List | Glossary On
Versions: 1 2 3 4 5 6 7 8 9 10 11 12 13 14 15 16 17 18
000
FTUS45 KGJT 191733
TAFRIL
TAF
KRIL 191733Z 1918/2018 27015KT P6SM VCSH FEW090 BKN110
      TEMPO 1919/1921 -SHRA BKN050
     FM200100 20005KT P6SM VCSH SCT060 BKN100
     FM200600 17003KT P6SM BKN120
     FM201200 VRB03KT P6SM FEW120 SCT250=

USA.gov is the U.S. government's official web portal to all federal, state and local government web resources and services.